Fertile, Minnesota
Current Conditions -  °F | °C
As of 5:15 PM on Wednesday 26 Nov 2014 (Local Time) from KFSE Reporting Station
Clear Clear  
Wind Chill: -19°   Ceiling: Unl
Heat Index: -8°   Visibility: 10mi
Dew Point: -13°   Wind: 5mph
Humidity: 77%   Direction: 340°NNW
Pressure: 30.42"   Gusts: NA
Location:  47.54°N, 96.28°W
Report Text: KFSE 262315Z AUTO 34004KT 10SM CLR M22/M25 A3042 RMK AO2
Loading
Personal Weather Stations






























Interactive Weather Map New forecast layout! Learn more

10-Day Weather Forecast

Advertisements
Track Severe Weather on mobile